createdAt,value
2023-05-09T00:00:27.545Z,14.47
2023-05-09T00:01:29.340Z,14.45
2023-05-09T00:02:31.146Z,14.44
2023-05-09T00:03:32.917Z,14.44
2023-05-09T00:04:34.730Z,14.50
2023-05-09T00:05:36.448Z,14.50
2023-05-09T00:06:38.247Z,14.52
2023-05-09T00:07:40.051Z,14.52
2023-05-09T00:08:41.858Z,14.53
2023-05-09T00:09:43.635Z,14.52
2023-05-09T00:10:45.465Z,14.51
2023-05-09T00:11:47.287Z,14.50
2023-05-09T00:12:48.993Z,14.49
2023-05-09T00:13:50.683Z,14.47
2023-05-09T00:14:52.350Z,14.49
2023-05-09T00:15:54.184Z,14.47
2023-05-09T00:16:56.067Z,14.47
2023-05-09T00:17:57.903Z,14.48
2023-05-09T00:19:00.232Z,14.46
2023-05-09T00:20:02.025Z,14.45
2023-05-09T00:21:03.753Z,14.44
2023-05-09T00:22:05.486Z,14.39
2023-05-09T00:23:07.247Z,14.39
2023-05-09T00:24:08.963Z,14.42
2023-05-09T00:25:10.744Z,14.41
2023-05-09T00:26:12.677Z,14.41
2023-05-09T00:27:14.483Z,14.41
2023-05-09T00:28:16.172Z,14.43
2023-05-09T00:29:17.969Z,14.39
2023-05-09T00:30:19.757Z,14.35
2023-05-09T00:31:21.630Z,14.34
2023-05-09T00:32:23.418Z,14.33
2023-05-09T00:33:25.110Z,14.32
2023-05-09T00:34:26.802Z,14.33
2023-05-09T00:35:28.559Z,14.31
2023-05-09T00:36:30.382Z,14.31
2023-05-09T00:37:32.068Z,14.30
2023-05-09T00:38:33.878Z,14.31
2023-05-09T00:39:35.591Z,14.31
2023-05-09T00:40:37.380Z,14.31
2023-05-09T00:41:39.101Z,14.30
2023-05-09T00:42:40.829Z,14.26
2023-05-09T00:43:42.622Z,14.26
2023-05-09T00:44:44.441Z,14.26
2023-05-09T00:45:46.165Z,14.26
2023-05-09T00:46:48.166Z,14.26
2023-05-09T00:47:49.945Z,14.25
2023-05-09T00:48:51.764Z,14.25
2023-05-09T00:49:53.471Z,14.26
2023-05-09T00:50:55.380Z,14.27
2023-05-09T00:51:57.139Z,14.26
2023-05-09T00:52:58.824Z,14.25
2023-05-09T00:54:00.510Z,14.26
2023-05-09T00:55:02.234Z,14.27
2023-05-09T00:56:04.131Z,14.27
2023-05-09T00:57:05.973Z,14.26
2023-05-09T00:58:07.780Z,14.25
2023-05-09T00:59:09.471Z,14.26
2023-05-09T01:00:11.369Z,14.26
2023-05-09T01:01:13.220Z,14.24
2023-05-09T01:02:15.079Z,14.25
2023-05-09T01:03:16.880Z,14.26
2023-05-09T01:04:18.732Z,14.27
2023-05-09T01:05:20.428Z,14.28
2023-05-09T01:06:22.237Z,14.29
2023-05-09T01:07:23.989Z,14.29
2023-05-09T01:08:25.682Z,14.29
2023-05-09T01:09:27.398Z,14.29
2023-05-09T01:10:29.192Z,14.30
2023-05-09T01:11:30.892Z,14.31
2023-05-09T01:12:32.612Z,14.30
2023-05-09T01:13:34.311Z,14.30
2023-05-09T01:14:36.024Z,14.29
2023-05-09T01:15:37.781Z,14.29
2023-05-09T01:16:39.741Z,14.29
2023-05-09T01:17:41.507Z,14.29
2023-05-09T01:18:43.187Z,14.30
2023-05-09T01:19:44.970Z,14.28
2023-05-09T01:20:46.781Z,14.27
2023-05-09T01:21:48.597Z,14.29
2023-05-09T01:22:50.335Z,14.29
2023-05-09T01:23:52.140Z,14.28
2023-05-09T01:24:53.945Z,14.27
2023-05-09T01:25:55.658Z,14.28
2023-05-09T01:26:57.457Z,14.28
2023-05-09T01:27:59.314Z,14.28
2023-05-09T01:29:01.104Z,14.29
2023-05-09T01:30:02.969Z,14.28
2023-05-09T01:31:04.753Z,14.24
2023-05-09T01:32:06.443Z,14.23
2023-05-09T01:33:08.213Z,14.20
2023-05-09T01:34:09.994Z,14.18
2023-05-09T01:35:11.709Z,14.18
2023-05-09T01:36:13.670Z,14.18
2023-05-09T01:37:15.408Z,14.18
2023-05-09T01:38:17.232Z,14.18
2023-05-09T01:39:18.931Z,14.18
2023-05-09T01:40:20.738Z,14.14
2023-05-09T01:41:22.422Z,14.17
2023-05-09T01:42:24.220Z,14.15
2023-05-09T01:43:25.972Z,14.15
2023-05-09T01:44:27.690Z,14.15
2023-05-09T01:45:29.544Z,14.15
2023-05-09T01:46:31.742Z,14.13
2023-05-09T01:47:33.540Z,14.13
2023-05-09T01:48:35.438Z,14.13
2023-05-09T01:49:37.139Z,14.11
2023-05-09T01:50:38.936Z,14.10
2023-05-09T01:51:42.959Z,14.09
2023-05-09T01:52:44.255Z,14.07
2023-05-09T01:53:46.133Z,14.06
2023-05-09T01:54:47.844Z,14.04
2023-05-09T01:55:49.537Z,14.04
2023-05-09T01:56:51.353Z,14.02
2023-05-09T01:57:53.172Z,14.01
2023-05-09T01:58:54.895Z,13.99
2023-05-09T01:59:56.594Z,13.98
2023-05-09T02:00:58.527Z,13.95
2023-05-09T02:02:00.396Z,13.94
2023-05-09T02:03:02.250Z,13.91
2023-05-09T02:04:04.049Z,13.90
2023-05-09T02:05:05.810Z,13.90
2023-05-09T02:06:07.934Z,13.91
2023-05-09T02:07:09.749Z,13.89
2023-05-09T02:08:11.464Z,13.87
2023-05-09T02:09:13.206Z,13.87
2023-05-09T02:10:15.103Z,13.87
2023-05-09T02:11:16.931Z,13.85
2023-05-09T02:12:18.738Z,13.83
2023-05-09T02:13:20.511Z,13.80
2023-05-09T02:14:22.288Z,13.77
2023-05-09T02:15:24.085Z,13.76
2023-05-09T02:16:25.903Z,13.76
2023-05-09T02:17:27.687Z,13.77
2023-05-09T02:18:29.409Z,13.76
2023-05-09T02:19:31.326Z,13.74
2023-05-09T02:20:33.138Z,13.74
2023-05-09T02:21:34.925Z,13.74
2023-05-09T02:22:36.626Z,13.75
2023-05-09T02:23:38.328Z,13.74
2023-05-09T02:24:40.170Z,13.71
2023-05-09T02:25:41.875Z,13.69
2023-05-09T02:26:43.883Z,13.68
2023-05-09T02:27:45.584Z,13.66
2023-05-09T02:28:47.267Z,13.63
2023-05-09T02:29:49.125Z,13.63
2023-05-09T02:30:50.917Z,13.62
2023-05-09T02:31:52.713Z,13.62
2023-05-09T02:32:54.559Z,13.60
2023-05-09T02:33:56.305Z,13.62
2023-05-09T02:34:58.051Z,13.62
2023-05-09T02:35:59.964Z,13.64
2023-05-09T02:37:01.771Z,13.63
2023-05-09T02:38:03.463Z,13.64
2023-05-09T02:39:05.260Z,13.64
2023-05-09T02:40:07.195Z,13.65
2023-05-09T02:41:09.219Z,13.65
2023-05-09T02:42:11.021Z,13.64
2023-05-09T02:43:12.726Z,13.64
2023-05-09T02:44:14.510Z,13.63
2023-05-09T02:45:16.405Z,13.64
2023-05-09T02:46:18.364Z,13.64
2023-05-09T02:47:20.251Z,13.66
2023-05-09T02:48:22.054Z,13.65
2023-05-09T02:49:32.144Z,13.64
2023-05-09T02:50:27.501Z,13.61
2023-05-09T02:51:29.287Z,13.58
2023-05-09T02:52:31.085Z,13.55
2023-05-09T02:53:32.890Z,13.53
2023-05-09T02:54:34.686Z,13.52
2023-05-09T02:55:36.596Z,13.51
2023-05-09T02:56:38.381Z,13.50
2023-05-09T02:57:40.184Z,13.50
2023-05-09T02:58:41.890Z,13.50
2023-05-09T02:59:43.592Z,13.49
2023-05-09T03:00:45.411Z,13.49
2023-05-09T03:01:47.260Z,13.47
2023-05-09T03:02:49.231Z,13.50
2023-05-09T03:03:51.187Z,13.50
2023-05-09T03:04:52.981Z,13.49
2023-05-09T03:05:54.702Z,13.46
2023-05-09T03:06:56.609Z,13.42
2023-05-09T03:07:58.311Z,13.41
2023-05-09T03:09:00.106Z,13.41
2023-05-09T03:10:01.903Z,13.40
2023-05-09T03:11:03.628Z,13.37
2023-05-09T03:12:05.307Z,13.38
2023-05-09T03:13:07.144Z,13.39
2023-05-09T03:14:08.919Z,13.41
2023-05-09T03:15:10.720Z,13.41
2023-05-09T03:16:12.786Z,13.42
2023-05-09T03:17:14.655Z,13.42
2023-05-09T03:18:16.464Z,13.42
2023-05-09T03:19:18.465Z,13.40
2023-05-09T03:20:20.252Z,13.38
2023-05-09T03:21:22.089Z,13.37
2023-05-09T03:22:23.896Z,13.35
2023-05-09T03:23:25.582Z,13.35
2023-05-09T03:24:27.257Z,13.38
2023-05-09T03:25:28.973Z,13.37
2023-05-09T03:26:30.776Z,13.36
2023-05-09T03:27:32.483Z,13.37
2023-05-09T03:28:34.183Z,13.40
2023-05-09T03:29:35.989Z,13.42
2023-05-09T03:30:37.787Z,13.45
2023-05-09T03:31:39.556Z,13.45
2023-05-09T03:32:41.425Z,13.45
2023-05-09T03:33:43.304Z,13.46
2023-05-09T03:34:45.012Z,13.47
2023-05-09T03:35:46.712Z,13.47
2023-05-09T03:36:48.520Z,13.46
2023-05-09T03:37:50.201Z,13.45
2023-05-09T03:38:51.905Z,13.45
2023-05-09T03:39:53.705Z,13.45
2023-05-09T03:40:55.491Z,13.45
2023-05-09T03:41:57.323Z,13.46
2023-05-09T03:42:59.117Z,13.47
2023-05-09T03:44:00.912Z,13.48
2023-05-09T03:45:02.621Z,13.50
2023-05-09T03:46:04.509Z,13.51
2023-05-09T03:47:06.477Z,13.54
2023-05-09T03:48:08.538Z,13.55
2023-05-09T03:49:10.358Z,13.54
2023-05-09T03:50:12.450Z,13.55
2023-05-09T03:51:14.146Z,13.56
2023-05-09T03:52:15.995Z,13.56
2023-05-09T03:53:17.770Z,13.56
2023-05-09T03:54:19.452Z,13.57
2023-05-09T03:55:21.147Z,13.58
2023-05-09T03:56:22.943Z,13.62
2023-05-09T03:57:24.780Z,13.65
2023-05-09T03:58:26.576Z,13.66
2023-05-09T03:59:28.271Z,13.67
2023-05-09T04:00:30.273Z,13.68
2023-05-09T04:01:31.960Z,13.67
2023-05-09T04:02:33.735Z,13.68
2023-05-09T04:03:35.506Z,13.70
2023-05-09T04:04:37.370Z,13.69
2023-05-09T04:05:39.061Z,13.68
2023-05-09T04:06:40.871Z,13.67
2023-05-09T04:07:42.606Z,13.68
2023-05-09T04:08:44.308Z,13.70
2023-05-09T04:09:46.003Z,13.73
2023-05-09T04:10:47.796Z,13.76
2023-05-09T04:11:49.494Z,13.77
2023-05-09T04:12:51.265Z,13.77
2023-05-09T04:13:52.922Z,13.78
2023-05-09T04:14:54.627Z,13.78
2023-05-09T04:15:56.330Z,13.78
2023-05-09T04:16:58.190Z,13.77
2023-05-09T04:18:00.082Z,13.79
2023-05-09T04:19:02.033Z,13.78
2023-05-09T04:20:03.838Z,13.79
2023-05-09T04:21:05.629Z,13.81
2023-05-09T04:22:07.421Z,13.81
2023-05-09T04:23:09.264Z,13.84
2023-05-09T04:24:10.969Z,13.84
2023-05-09T04:25:12.921Z,13.81
2023-05-09T04:26:14.960Z,13.81
2023-05-09T04:27:16.665Z,13.83
2023-05-09T04:28:18.400Z,13.85
2023-05-09T04:29:20.087Z,13.87
2023-05-09T04:30:21.884Z,13.87
2023-05-09T04:31:23.765Z,13.88
2023-05-09T04:32:25.600Z,13.91
2023-05-09T04:33:27.515Z,13.91
2023-05-09T04:34:29.199Z,13.92
2023-05-09T04:35:31.203Z,13.95
2023-05-09T04:36:32.982Z,13.97
2023-05-09T04:37:34.721Z,13.98
2023-05-09T04:38:36.519Z,14.00
2023-05-09T04:39:38.300Z,14.03
2023-05-09T04:40:40.128Z,14.04
2023-05-09T04:41:41.801Z,14.06
2023-05-09T04:42:43.503Z,14.07
2023-05-09T04:43:45.237Z,14.05
2023-05-09T04:44:47.036Z,14.04
2023-05-09T04:45:48.752Z,14.05
2023-05-09T04:46:50.524Z,14.04
2023-05-09T04:47:52.304Z,14.03
2023-05-09T04:48:54.051Z,14.05
2023-05-09T04:49:55.847Z,14.05
2023-05-09T04:50:57.660Z,14.05
2023-05-09T04:51:59.454Z,14.06
2023-05-09T04:53:01.263Z,14.07
2023-05-09T04:54:02.962Z,14.08
2023-05-09T04:55:04.650Z,14.10
2023-05-09T04:56:06.573Z,14.10
2023-05-09T04:57:17.216Z,14.12
2023-05-09T04:58:11.889Z,14.14
2023-05-09T04:59:13.629Z,14.17
2023-05-09T05:00:15.646Z,14.18
2023-05-09T05:01:17.473Z,14.20
2023-05-09T05:02:19.456Z,14.18
2023-05-09T05:03:21.210Z,14.17
2023-05-09T05:04:22.967Z,14.14
2023-05-09T05:05:25.643Z,14.09
2023-05-09T05:06:27.729Z,14.07
2023-05-09T05:07:29.533Z,14.06
2023-05-09T05:08:31.250Z,14.06
2023-05-09T05:09:33.048Z,14.07
2023-05-09T05:10:34.850Z,14.08
2023-05-09T05:11:36.663Z,14.12
2023-05-09T05:12:38.483Z,14.14
2023-05-09T05:13:40.199Z,14.16
2023-05-09T05:14:41.905Z,14.14
2023-05-09T05:15:43.765Z,14.11
2023-05-09T05:16:45.585Z,14.10
2023-05-09T05:17:47.451Z,14.12
2023-05-09T05:18:49.310Z,14.10
2023-05-09T05:19:51.141Z,14.07
2023-05-09T05:20:52.947Z,14.04
2023-05-09T05:21:54.641Z,14.05
2023-05-09T05:22:56.357Z,14.05
2023-05-09T05:23:58.179Z,14.05
2023-05-09T05:24:59.916Z,14.05
2023-05-09T05:26:01.704Z,14.07
2023-05-09T05:27:03.407Z,14.09
2023-05-09T05:28:05.113Z,14.10
2023-05-09T05:29:06.812Z,14.11
2023-05-09T05:30:08.856Z,14.12
2023-05-09T05:31:10.577Z,14.11
2023-05-09T05:32:12.269Z,14.07
2023-05-09T05:33:13.963Z,14.06
2023-05-09T05:34:15.765Z,14.05
2023-05-09T05:35:17.685Z,14.03
2023-05-09T05:36:19.632Z,14.02
2023-05-09T05:37:21.343Z,14.02
2023-05-09T05:38:23.248Z,14.03
2023-05-09T05:39:25.082Z,14.02
2023-05-09T05:40:26.902Z,14.06
2023-05-09T05:41:28.601Z,14.06
2023-05-09T05:42:30.394Z,14.10
2023-05-09T05:43:32.218Z,14.13
2023-05-09T05:44:33.933Z,14.15
2023-05-09T05:45:35.716Z,14.17
2023-05-09T05:46:37.538Z,14.18
2023-05-09T05:47:39.304Z,14.17
2023-05-09T05:48:41.452Z,14.18
2023-05-09T05:49:43.158Z,14.19
2023-05-09T05:50:45.049Z,14.21
2023-05-09T05:51:46.759Z,14.21
2023-05-09T05:52:48.474Z,14.22
2023-05-09T05:53:50.253Z,14.25
2023-05-09T05:54:52.057Z,14.29
2023-05-09T05:55:53.800Z,14.26
2023-05-09T05:56:55.851Z,14.23
2023-05-09T05:57:57.661Z,14.20
2023-05-09T05:58:59.514Z,14.19
2023-05-09T06:00:01.325Z,14.22
2023-05-09T06:01:03.208Z,14.24
2023-05-09T06:02:04.919Z,14.28
2023-05-09T06:03:06.771Z,14.32
2023-05-09T06:04:08.712Z,14.35
2023-05-09T06:05:10.371Z,14.38
2023-05-09T06:06:12.317Z,14.39
2023-05-09T06:07:14.051Z,14.42
2023-05-09T06:08:15.746Z,14.42
2023-05-09T06:09:17.557Z,14.42
2023-05-09T06:10:19.830Z,14.41
2023-05-09T06:11:21.589Z,14.39
2023-05-09T06:12:23.396Z,14.37
2023-05-09T06:13:25.174Z,14.36
2023-05-09T06:14:26.900Z,14.36
2023-05-09T06:15:28.600Z,14.38
2023-05-09T06:16:30.478Z,14.40
2023-05-09T06:17:32.278Z,14.42
2023-05-09T06:18:34.034Z,14.46
2023-05-09T06:19:35.725Z,14.46
2023-05-09T06:20:37.543Z,14.47
2023-05-09T06:21:39.265Z,14.44
2023-05-09T06:22:40.967Z,14.43
2023-05-09T06:23:57.747Z,14.45
2023-05-09T06:24:46.400Z,14.46
2023-05-09T06:25:48.214Z,14.49
2023-05-09T06:26:50.038Z,14.47
2023-05-09T06:27:51.843Z,14.49
2023-05-09T06:28:53.648Z,14.49
2023-05-09T06:29:55.370Z,14.49
2023-05-09T06:30:57.199Z,14.51
2023-05-09T06:31:59.068Z,14.50
2023-05-09T06:33:01.183Z,14.52
2023-05-09T06:34:03.025Z,14.53
2023-05-09T06:35:04.843Z,14.55
2023-05-09T06:36:06.721Z,14.56
2023-05-09T06:37:08.471Z,14.56
2023-05-09T06:38:10.456Z,14.57
2023-05-09T06:39:12.450Z,14.59
2023-05-09T06:40:14.388Z,14.60
2023-05-09T06:41:16.178Z,14.60
2023-05-09T06:42:17.904Z,14.61
2023-05-09T06:43:19.700Z,14.64
2023-05-09T06:44:21.409Z,14.65
2023-05-09T06:45:23.227Z,14.67
2023-05-09T06:46:25.058Z,14.68
2023-05-09T06:47:26.947Z,14.67
2023-05-09T06:48:28.828Z,14.65
2023-05-09T06:49:30.535Z,14.66
2023-05-09T06:50:33.106Z,14.65
2023-05-09T06:51:34.978Z,14.63
2023-05-09T06:52:36.708Z,14.60
2023-05-09T06:53:38.928Z,14.61
2023-05-09T06:54:40.661Z,14.63
2023-05-09T06:55:42.370Z,14.63
2023-05-09T06:56:44.178Z,14.65
2023-05-09T06:57:46.050Z,14.67
2023-05-09T06:58:47.854Z,14.70
2023-05-09T06:59:49.634Z,14.75
2023-05-09T07:00:51.437Z,14.77
2023-05-09T07:01:53.328Z,14.81
2023-05-09T07:02:55.227Z,14.83
2023-05-09T07:03:56.984Z,14.87
2023-05-09T07:04:58.795Z,14.88
2023-05-09T07:06:00.490Z,14.88
2023-05-09T07:07:02.295Z,14.93
2023-05-09T07:08:04.098Z,14.94
2023-05-09T07:09:05.847Z,14.96
2023-05-09T07:10:11.997Z,14.96
2023-05-09T07:11:14.422Z,14.98
2023-05-09T07:12:16.169Z,15.00
2023-05-09T07:13:17.949Z,15.01
2023-05-09T07:14:19.600Z,15.01
2023-05-09T07:15:32.886Z,15.08
2023-05-09T07:16:25.022Z,15.10
2023-05-09T07:17:26.758Z,15.10
2023-05-09T07:18:28.740Z,15.10
2023-05-09T07:19:30.439Z,15.11
2023-05-09T07:20:32.315Z,15.15
2023-05-09T07:21:34.005Z,15.19
2023-05-09T07:22:37.352Z,15.21
2023-05-09T07:23:39.262Z,15.21
2023-05-09T07:24:41.046Z,15.24
2023-05-09T07:25:42.744Z,15.23
2023-05-09T07:26:44.541Z,15.21
2023-05-09T07:27:46.339Z,15.18
2023-05-09T07:28:48.192Z,15.17
2023-05-09T07:29:49.869Z,15.16
2023-05-09T07:30:51.678Z,15.17
2023-05-09T07:31:53.419Z,15.17
2023-05-09T07:32:55.342Z,15.19
2023-05-09T07:33:57.174Z,15.21
2023-05-09T07:34:58.863Z,15.26
2023-05-09T07:36:00.659Z,15.28
2023-05-09T07:37:02.358Z,15.31
2023-05-09T07:38:04.146Z,15.34
2023-05-09T07:39:05.875Z,15.38
2023-05-09T07:40:08.086Z,15.39
2023-05-09T07:41:09.964Z,15.41
2023-05-09T07:42:11.953Z,15.44
2023-05-09T07:43:13.649Z,15.49
2023-05-09T07:44:15.385Z,15.53
2023-05-09T07:45:17.528Z,15.56
2023-05-09T07:46:20.218Z,15.57
2023-05-09T07:47:21.993Z,15.60
2023-05-09T07:48:23.704Z,15.63
2023-05-09T07:49:25.439Z,15.63
2023-05-09T07:50:27.252Z,15.64
2023-05-09T07:51:28.960Z,15.67
2023-05-09T07:52:30.747Z,15.67
2023-05-09T07:53:32.451Z,15.66
2023-05-09T07:54:34.279Z,15.63
2023-05-09T07:55:36.051Z,15.59
2023-05-09T07:56:37.850Z,15.55
2023-05-09T07:57:39.949Z,15.52
2023-05-09T07:58:41.833Z,15.54
2023-05-09T07:59:43.592Z,15.54
2023-05-09T08:00:45.419Z,15.50
2023-05-09T08:01:47.117Z,15.49
2023-05-09T08:02:48.836Z,15.45
2023-05-09T08:03:50.833Z,15.41
2023-05-09T08:04:52.833Z,15.39
2023-05-09T08:05:54.535Z,15.38
2023-05-09T08:06:56.332Z,15.38
2023-05-09T08:07:58.128Z,15.39
2023-05-09T08:08:59.820Z,15.38
2023-05-09T08:10:01.699Z,15.38
2023-05-09T08:11:03.502Z,15.40
2023-05-09T08:12:05.196Z,15.43
2023-05-09T08:13:06.921Z,15.46
2023-05-09T08:14:08.573Z,15.49
2023-05-09T08:15:10.407Z,15.51
2023-05-09T08:16:12.355Z,15.51
2023-05-09T08:17:14.013Z,15.53
2023-05-09T08:18:15.701Z,15.55
2023-05-09T08:19:17.517Z,15.60
2023-05-09T08:20:19.341Z,15.59
2023-05-09T08:21:22.268Z,15.62
2023-05-09T08:22:24.237Z,15.63
2023-05-09T08:23:25.987Z,15.62
2023-05-09T08:24:27.684Z,15.58
2023-05-09T08:25:29.419Z,15.57
2023-05-09T08:26:31.214Z,15.55
2023-05-09T08:27:32.930Z,15.53
2023-05-09T08:28:34.615Z,15.55
2023-05-09T08:29:36.329Z,15.59
2023-05-09T08:30:38.132Z,15.62
2023-05-09T08:31:39.971Z,15.66
2023-05-09T08:32:41.834Z,15.67
2023-05-09T08:33:43.628Z,15.70
2023-05-09T08:34:45.309Z,15.72
2023-05-09T08:35:47.062Z,15.73
2023-05-09T08:36:48.845Z,15.75
2023-05-09T08:37:50.637Z,15.75
2023-05-09T08:38:52.325Z,15.76
2023-05-09T08:39:54.130Z,15.76
2023-05-09T08:40:55.967Z,15.76
2023-05-09T08:41:57.654Z,15.77
2023-05-09T08:42:59.444Z,15.79
2023-05-09T08:44:01.245Z,15.82
2023-05-09T08:45:02.951Z,15.82
2023-05-09T08:46:04.808Z,15.81
2023-05-09T08:47:06.596Z,15.81
2023-05-09T08:48:08.433Z,15.80
2023-05-09T08:49:10.228Z,15.77
2023-05-09T08:50:12.386Z,15.76
2023-05-09T08:51:14.386Z,15.74
2023-05-09T08:52:16.091Z,15.70
2023-05-09T08:53:17.809Z,15.67
2023-05-09T08:54:20.760Z,15.66
2023-05-09T08:55:23.137Z,15.65
2023-05-09T08:56:24.977Z,15.64
2023-05-09T08:57:26.778Z,15.58
2023-05-09T08:58:28.481Z,15.58
2023-05-09T08:59:30.270Z,15.59
2023-05-09T09:00:32.074Z,15.58
2023-05-09T09:01:33.987Z,15.58
2023-05-09T09:02:35.900Z,15.55
2023-05-09T09:03:37.713Z,15.49
2023-05-09T09:06:00.657Z,15.40
2023-05-09T09:07:02.379Z,15.37
2023-05-09T09:08:04.072Z,15.34
2023-05-09T09:09:05.777Z,15.34
2023-05-09T09:10:08.564Z,15.32
2023-05-09T09:11:10.378Z,15.29
2023-05-09T09:12:12.227Z,15.27
2023-05-09T09:13:13.962Z,15.24
2023-05-09T09:14:15.766Z,15.23
2023-05-09T09:15:17.553Z,15.22
2023-05-09T09:16:19.377Z,15.22
2023-05-09T09:17:21.119Z,15.22
2023-05-09T09:18:22.954Z,15.26
2023-05-09T09:19:24.724Z,15.23
2023-05-09T09:20:26.536Z,15.17
2023-05-09T09:21:28.366Z,15.10
2023-05-09T09:22:30.111Z,15.04
2023-05-09T09:23:31.911Z,15.02
2023-05-09T09:24:33.708Z,15.02
2023-05-09T09:25:35.616Z,15.00
2023-05-09T09:26:37.466Z,14.98
2023-05-09T09:27:39.225Z,14.97
2023-05-09T09:28:41.024Z,14.93
2023-05-09T09:29:42.713Z,14.93
2023-05-09T09:30:44.663Z,14.90
2023-05-09T09:31:46.485Z,14.92
2023-05-09T09:32:48.369Z,14.93
2023-05-09T09:33:50.310Z,14.93
2023-05-09T09:34:52.112Z,14.93
2023-05-09T09:35:53.820Z,14.99
2023-05-09T09:36:55.656Z,15.02
2023-05-09T09:37:59.757Z,15.02
2023-05-09T09:39:00.882Z,15.03
2023-05-09T09:40:02.683Z,15.01
2023-05-09T09:41:04.416Z,15.00
2023-05-09T09:42:06.178Z,15.02
2023-05-09T09:43:08.029Z,15.02
2023-05-09T09:44:09.844Z,15.03
2023-05-09T09:45:11.626Z,15.05
2023-05-09T09:46:13.595Z,15.05
2023-05-09T09:47:15.438Z,15.06
2023-05-09T09:48:17.185Z,15.08
2023-05-09T09:49:18.972Z,15.09
2023-05-09T09:50:20.814Z,15.08
2023-05-09T09:51:22.800Z,15.08
2023-05-09T09:52:24.623Z,15.10
2023-05-09T09:53:26.518Z,15.11
2023-05-09T09:54:28.211Z,15.12
2023-05-09T09:55:29.908Z,15.14
2023-05-09T09:56:31.695Z,15.17
2023-05-09T09:57:33.406Z,15.18
2023-05-09T09:58:35.256Z,15.21
2023-05-09T09:59:37.070Z,15.22
2023-05-09T10:00:38.883Z,15.21
2023-05-09T10:01:40.607Z,15.26
2023-05-09T10:02:42.724Z,15.26
2023-05-09T10:03:44.618Z,15.27
2023-05-09T10:04:46.527Z,15.29
2023-05-09T10:05:48.336Z,15.30
2023-05-09T10:06:50.144Z,15.31
2023-05-09T10:07:51.952Z,15.33
2023-05-09T10:08:53.688Z,15.33
2023-05-09T10:09:55.400Z,15.33
2023-05-09T10:10:57.192Z,15.33
2023-05-09T10:11:59.004Z,15.34
2023-05-09T10:13:00.781Z,15.35
2023-05-09T10:14:02.564Z,15.34
2023-05-09T10:15:04.271Z,15.36
2023-05-09T10:16:06.339Z,15.36
2023-05-09T10:17:08.442Z,15.36
2023-05-09T10:18:10.499Z,15.36
2023-05-09T10:19:12.407Z,15.33
2023-05-09T10:20:14.469Z,15.29
2023-05-09T10:21:17.643Z,15.24
2023-05-09T10:22:19.466Z,15.21
2023-05-09T10:23:21.271Z,15.19
2023-05-09T10:24:23.124Z,15.15
2023-05-09T10:25:24.959Z,15.13
2023-05-09T10:26:26.846Z,15.13
2023-05-09T10:27:28.725Z,15.15
2023-05-09T10:28:30.523Z,15.17
2023-05-09T10:29:32.268Z,15.17
2023-05-09T10:30:34.326Z,15.18
2023-05-09T10:31:36.203Z,15.19
2023-05-09T10:32:38.217Z,15.21
2023-05-09T10:33:40.174Z,15.20
2023-05-09T10:34:41.898Z,15.20
2023-05-09T10:35:43.668Z,15.19
2023-05-09T10:36:45.945Z,15.19
2023-05-09T10:37:47.617Z,15.20
2023-05-09T10:38:49.348Z,15.22
2023-05-09T10:39:51.170Z,15.23
2023-05-09T10:40:52.974Z,15.26
2023-05-09T10:41:54.805Z,15.29
2023-05-09T10:42:56.591Z,15.30
2023-05-09T10:43:58.303Z,15.27
2023-05-09T10:45:00.175Z,15.21
2023-05-09T10:46:02.039Z,15.17
2023-05-09T10:47:03.897Z,15.14
2023-05-09T10:48:05.873Z,15.13
2023-05-09T10:49:07.634Z,15.15
2023-05-09T10:50:09.594Z,15.16
2023-05-09T10:51:11.287Z,15.17
2023-05-09T10:52:13.113Z,15.16
2023-05-09T10:53:14.827Z,15.15
2023-05-09T10:54:16.629Z,15.12
2023-05-09T10:55:18.473Z,15.12
2023-05-09T10:56:20.263Z,15.13
2023-05-09T10:57:21.980Z,15.10
2023-05-09T10:58:23.694Z,15.10
2023-05-09T10:59:25.376Z,15.09
2023-05-09T11:00:27.313Z,15.04
2023-05-09T11:01:29.137Z,15.04
2023-05-09T11:02:31.019Z,15.03
2023-05-09T11:03:32.943Z,15.03
2023-05-09T11:04:34.900Z,15.03
2023-05-09T11:05:36.634Z,15.00
2023-05-09T11:06:38.768Z,14.98
2023-05-09T11:07:40.581Z,14.98
2023-05-09T11:08:42.289Z,15.00
2023-05-09T11:09:44.005Z,15.01
2023-05-09T11:10:45.837Z,14.99
2023-05-09T11:11:47.658Z,14.97
2023-05-09T11:12:49.503Z,14.97
2023-05-09T11:13:51.266Z,14.97
2023-05-09T11:14:52.962Z,15.00
2023-05-09T11:15:54.865Z,15.00
2023-05-09T11:16:56.705Z,14.98
2023-05-09T11:17:58.467Z,14.97
2023-05-09T11:19:00.716Z,14.87
2023-05-09T11:20:02.484Z,14.87
2023-05-09T11:21:04.319Z,14.90
2023-05-09T11:22:06.133Z,14.93
2023-05-09T11:23:07.927Z,14.94
2023-05-09T11:24:09.757Z,14.94
2023-05-09T11:25:11.473Z,14.95
2023-05-09T11:26:13.700Z,14.98
2023-05-09T11:27:15.514Z,15.01
2023-05-09T11:28:17.335Z,15.00
2023-05-09T11:29:19.148Z,15.01
2023-05-09T11:30:20.940Z,15.00
2023-05-09T11:31:22.802Z,14.99
2023-05-09T11:32:24.591Z,14.98
2023-05-09T11:33:26.392Z,14.97
2023-05-09T11:34:28.168Z,14.98
2023-05-09T11:35:29.993Z,14.98
2023-05-09T11:36:31.941Z,14.96
2023-05-09T11:37:33.712Z,14.94
2023-05-09T11:38:35.500Z,14.95
2023-05-09T11:39:37.268Z,14.96
2023-05-09T11:40:39.457Z,14.96
2023-05-09T11:41:41.177Z,14.94
2023-05-09T11:42:42.874Z,14.95
2023-05-09T11:43:44.672Z,14.96
2023-05-09T11:44:46.357Z,14.97
2023-05-09T11:45:48.183Z,14.96
2023-05-09T11:46:50.009Z,14.94
2023-05-09T11:47:51.831Z,14.92
2023-05-09T11:48:53.698Z,14.92
2023-05-09T11:49:55.494Z,14.94
2023-05-09T11:50:57.292Z,14.97
2023-05-09T11:51:59.246Z,14.99
2023-05-09T11:53:00.935Z,15.00
2023-05-09T11:54:02.743Z,15.02
2023-05-09T11:55:04.477Z,15.03
2023-05-09T11:56:06.339Z,15.04
2023-05-09T11:57:08.074Z,15.03
2023-05-09T11:58:09.839Z,15.05
2023-05-09T11:59:11.761Z,15.08
2023-05-09T12:00:13.835Z,15.09
2023-05-09T12:01:15.914Z,15.07
2023-05-09T12:02:18.336Z,15.08
2023-05-09T12:03:21.469Z,15.09
2023-05-09T12:04:24.097Z,15.11
2023-05-09T12:05:26.193Z,15.11
2023-05-09T12:06:27.977Z,15.13
2023-05-09T12:07:29.715Z,15.15
2023-05-09T12:08:31.405Z,15.17
2023-05-09T12:09:33.199Z,15.19
2023-05-09T12:10:34.989Z,15.20
2023-05-09T12:11:36.813Z,15.20
2023-05-09T12:12:38.615Z,15.20
2023-05-09T12:13:40.411Z,15.20
2023-05-09T12:14:42.193Z,15.20
2023-05-09T12:15:44.088Z,15.18
2023-05-09T12:16:45.883Z,15.18
2023-05-09T12:17:50.452Z,15.18
2023-05-09T12:18:51.238Z,15.21
2023-05-09T12:19:52.949Z,15.21
2023-05-09T12:20:54.730Z,15.23
2023-05-09T12:21:56.516Z,15.22
2023-05-09T12:22:58.478Z,15.23
2023-05-09T12:24:00.752Z,15.27
2023-05-09T12:25:02.791Z,15.29
2023-05-09T12:26:05.143Z,15.28
2023-05-09T12:27:10.975Z,15.26
2023-05-09T12:28:13.808Z,15.22
2023-05-09T12:29:15.877Z,15.22
2023-05-09T12:30:17.716Z,15.21
2023-05-09T12:31:22.057Z,15.22
2023-05-09T12:32:23.866Z,15.26
2023-05-09T12:33:25.694Z,15.29
2023-05-09T12:34:27.481Z,15.32
2023-05-09T12:35:29.203Z,15.34
2023-05-09T12:36:30.990Z,15.37
2023-05-09T12:37:32.818Z,15.36
2023-05-09T12:38:34.664Z,15.37
2023-05-09T12:39:36.423Z,15.39
2023-05-09T12:40:38.217Z,15.39
2023-05-09T12:41:49.842Z,15.41
2023-05-09T12:42:43.608Z,15.47
2023-05-09T12:43:45.393Z,15.45
2023-05-09T12:44:47.178Z,15.44
2023-05-09T12:45:48.874Z,15.46
2023-05-09T12:46:50.792Z,15.49
2023-05-09T12:47:52.697Z,15.51
2023-05-09T12:48:54.602Z,15.52
2023-05-09T12:49:56.408Z,15.49
2023-05-09T12:50:58.175Z,15.47
2023-05-09T12:52:01.631Z,15.48
2023-05-09T12:53:03.832Z,15.49
2023-05-09T12:54:05.699Z,15.49
2023-05-09T12:55:07.476Z,15.50
2023-05-09T12:56:09.674Z,15.51
2023-05-09T12:57:11.471Z,15.52
2023-05-09T12:58:13.260Z,15.50
2023-05-09T12:59:15.090Z,15.47
2023-05-09T13:00:16.982Z,15.46
2023-05-09T13:01:18.832Z,15.45
2023-05-09T13:02:21.159Z,15.45
2023-05-09T13:03:22.996Z,15.47
2023-05-09T13:04:24.702Z,15.47
2023-05-09T13:05:26.483Z,15.48
2023-05-09T13:06:28.285Z,15.48
2023-05-09T13:07:30.072Z,15.47
2023-05-09T13:08:31.889Z,15.44
2023-05-09T13:09:33.726Z,15.45
2023-05-09T13:10:35.547Z,15.46
2023-05-09T13:11:37.238Z,15.44
2023-05-09T13:12:38.924Z,15.44
2023-05-09T13:13:40.606Z,15.44
2023-05-09T13:14:42.445Z,15.46
2023-05-09T13:15:44.241Z,15.46
2023-05-09T13:16:46.267Z,15.46
2023-05-09T13:17:48.055Z,15.46